Macomb, IL (61455)

1:55 AM CST on January 19, 2017 (GMT -0600)
Tillman Hall - WIU Geography | | Change Station
Active Advisory: Special Statement

Elev 712 ft 40.46 °N, 90.68 °W | Updated 10 minutes ago

Mostly Cloudy
Mostly Cloudy
36.0 °F
Feels Like 36 °F
N
0.0
Wind Variable Wind from South
Gusts 0.0 mph

Today
High -- | Low -- °F
--% Chance of Precip.
Yesterday
High -- | Low -- °F
Precip. -- in
Pressure 30.03 in
Visibility 3.0 miles
Clouds Clear
Windchill 36 °F
Dew Point 32 °F
Humidity 87%
Rainfall 0.00 in
Snow Depth Not available.
7:21 AM 5:05 PM
Waning Gibbous, 56% visible
METAR KMQB 190735Z AUTO 17003KT 3SM BR CLR 00/00 A3003 RMK AO2 T00000000
Pressure 30.03 in
Visibility 3.0 miles
Clouds Clear
Windchill 36 °F
Dew Point 32 °F
Humidity 87%
Rainfall 0.00 in
Snow Depth Not available.
7:21 AM 5:05 PM
Waning Gibbous, 56% visible
METAR KMQB 190735Z AUTO 17003KT 3SM BR CLR 00/00 A3003 RMK AO2 T00000000

Get Your Daily Forecast Email!

Thanks for signing up!

Be on the lookout for a verification email in your inbox.

You'll start receiving the daily forecast at 8 AM.

×

10-Day Weather Forecast

Almanac

Astronomy

Jan. 19, 2017 Rise Set
Actual Time
Civil Twilight
Nautical Twilight
Astronomical Twilight
Moon
Length of Visible Light
Length of Day
Tomorrow will be .
, % of the Moon is Illuminated

Today's Extremes

State Highs State Lows

Community

WunderPhotos

Upload Photos

1,962,540 photos uploaded!

WunderBlog® & News

Nearby

Air Quality

  Air Quality AQ Index Pollutant
Not available.

Snow Depth

Station Depth Elevation

Earthquake Activity

City Distance Mag. Time & Date
Minimum magnitude displayed is 2.5.

Coastal Water Temperatures

Place Temperature

Stations

Nearby Weather Stations

Station Location Temp. Windchill Dew Point Humidity Wind Precip. Elev Updated Type
                   

Watches & Warnings

Special Statement
Issued: 12:32 AM CST Jan. 19, 2017 – National Weather Service

... Slick frosty roads and patchy dense fog early this morning...

Patchy dense fog, with visibility under 1/4 mile at times will
continue to through the early morning hours. In addition, Road
frost has formed, making for slick conditions, and longer than
normal stopping distances. This combination of pathcy dense fog
and slick roads will be hazardous... and motorists should use extra
caution.



Ervin

1232 am CST Thu Jan 19 2017

... Slick frosty roads and patchy dense fog early this morning...

Patchy dense fog, with visibility under 1/4 mile at times will
continue to through the early morning hours. In addition, Road
frost has formed, making for slick conditions, and longer than
normal stopping distances. This combination of pathcy dense fog
and slick roads will be hazardous... and motorists should use extra
caution.